Accueil
METAR-TAF:

METAR-TAF

Aéroports :

Kanoya, Japon

latitude: 31-22N, longitude: 130-50E, altitude: 65 m

Observation

Le bulletin a été fait il y a 8 heures et 49 minutes, à 21:14 UTC
Vent 6 kt de nord-est, variant entre nord/nord-est et est
Température 27°C
Humidité 89%
Pression 1007 hPa
Visibilité 10 km ou plus
Quelques nuages à une hauteur de 100 ft
Nuages épars à une hauteur de 600 ft
Nuages fragmentés

METAR: RJFY 242114Z 05006KT 020V080 9999 FEW001 SCT006 BKN/// 27/25 Q1007 RMK 1ST001 4ST006 A2976

Heure: 15:03 (06:03 UTC)


TAF: absent

Observations et prévisions météorologiques de plus de 4000 aéroports (messages METAR et TAF).

Les stations disponibles sont représentées par des disques jaunes et rouges sur la carte.

Passer la souris dessus pour voir le nom de la station.

Cliquer dessus pour voir les observations et prévisions météorologiques.

Pour changer de carte: cliquez sur les boutons verts avec une croix noire pour zoomer, sur le bouton vert avec un tiret pour effectuer un zoom arrière, ou sur les flèches vertes pour les cartes adjacentes.


METAR-TAF: